Marianna, Pennsylvania
Current Conditions -  °F | °C
As of 7:55 PM on Wednesday 22 Oct 2014 (Local Time) from KAFJ Reporting Station
Overcast Overcast  
Wind Chill:   Ceiling: 2100
Heat Index:   Visibility: 10mi
Dew Point:   Wind: 9mph
Humidity: 76%   Direction: 360°N
Pressure: 30.19"   Gusts: 17mph
Location:  40.02°N, 80.1°W
Report Text: KAFJ 222355Z AUTO 36008G15KT 320V030 10SM OVC021 08/04 A3019 RMK AO1 10090 20080 400900080 52003
Loading
Personal Weather Stations






























Interactive Weather Map
Tropical Storm Tracking
New forecast layout! Learn more

10-Day Weather Forecast

Advertisements
Track Severe Weather on mobile